createdAt,value
2023-04-29T00:02:17.483Z,16.30
2023-04-29T00:07:22.395Z,17.87
2023-04-29T00:12:25.554Z,21.17
2023-04-29T00:17:28.803Z,23.93
2023-04-29T00:22:33.320Z,24.17
2023-04-29T00:27:38.510Z,23.80
2023-04-29T00:32:41.742Z,24.57
2023-04-29T00:37:46.121Z,23.90
2023-04-29T00:42:49.392Z,26.07
2023-04-29T00:47:52.684Z,24.57
2023-04-29T00:52:57.173Z,25.47
2023-04-29T00:58:00.825Z,28.40
2023-04-29T01:03:04.512Z,24.60
2023-04-29T01:08:22.653Z,28.03
2023-04-29T01:13:32.085Z,30.40
2023-04-29T01:18:43.188Z,30.93
2023-04-29T01:23:53.759Z,28.00
2023-04-29T01:29:05.477Z,28.20
2023-04-29T01:34:14.438Z,30.07
2023-04-29T01:39:26.046Z,30.07
2023-04-29T01:44:42.510Z,30.30
2023-04-29T01:49:47.471Z,34.27
2023-04-29T01:54:52.090Z,30.80
2023-04-29T01:59:55.846Z,29.20
2023-04-29T02:05:18.649Z,28.87
2023-04-29T02:10:31.031Z,29.97
2023-04-29T02:15:50.993Z,27.93
2023-04-29T02:21:01.636Z,27.33
2023-04-29T02:26:07.085Z,30.90
2023-04-29T02:31:10.117Z,24.23
2023-04-29T02:36:13.504Z,26.53
2023-04-29T02:41:19.568Z,21.43
2023-04-29T02:46:24.470Z,22.47
2023-04-29T02:51:29.085Z,21.50
2023-04-29T02:56:33.641Z,25.20
2023-04-29T03:01:38.783Z,22.60
2023-04-29T03:06:41.890Z,25.30
2023-04-29T03:11:48.548Z,24.80
2023-04-29T03:16:52.272Z,22.70
2023-04-29T03:21:55.277Z,20.63
2023-04-29T03:27:01.253Z,23.00
2023-04-29T03:32:04.626Z,21.13
2023-04-29T03:37:09.302Z,16.23
2023-04-29T03:42:16.887Z,17.47
2023-04-29T03:47:20.752Z,17.57
2023-04-29T03:52:24.758Z,16.10
2023-04-29T03:57:34.845Z,17.03
2023-04-29T04:02:38.085Z,14.80
2023-04-29T04:07:41.143Z,17.53
2023-04-29T04:13:05.754Z,14.53
2023-04-29T04:18:09.332Z,13.90
2023-04-29T04:23:12.435Z,16.50
2023-04-29T04:28:16.965Z,16.50
2023-04-29T04:33:34.305Z,15.17
2023-04-29T04:38:37.416Z,13.63
2023-04-29T04:43:46.316Z,15.80
2023-04-29T04:48:54.576Z,16.03
2023-04-29T04:53:58.225Z,15.50
2023-04-29T04:59:06.428Z,15.97
2023-04-29T05:04:12.199Z,14.90
2023-04-29T05:09:15.284Z,15.40
2023-04-29T05:14:20.078Z,15.77
2023-04-29T05:19:23.040Z,16.47
2023-04-29T05:24:26.215Z,22.13
2023-04-29T05:29:30.853Z,18.97
2023-04-29T05:34:36.608Z,17.47
2023-04-29T05:39:39.750Z,18.03
2023-04-29T05:44:50.110Z,17.50
2023-04-29T05:49:53.450Z,20.87
2023-04-29T05:54:56.864Z,19.17
2023-04-29T06:00:01.763Z,18.73
2023-04-29T06:05:05.676Z,17.87
2023-04-29T06:10:17.438Z,18.00
2023-04-29T06:15:23.359Z,17.17
2023-04-29T06:20:27.274Z,17.50
2023-04-29T06:25:30.228Z,18.07
2023-04-29T06:30:34.613Z,14.97
2023-04-29T06:35:41.360Z,18.97
2023-04-29T06:41:13.820Z,18.43
2023-04-29T06:46:39.300Z,17.27
2023-04-29T06:51:53.141Z,17.80
2023-04-29T06:56:56.372Z,15.90
2023-04-29T07:02:00.711Z,17.83
2023-04-29T07:07:03.837Z,14.67
2023-04-29T07:12:07.149Z,18.87
2023-04-29T07:17:14.057Z,15.17
2023-04-29T07:22:17.949Z,15.47
2023-04-29T07:27:21.128Z,13.93
2023-04-29T07:32:26.249Z,12.73
2023-04-29T07:37:29.342Z,12.13
2023-04-29T07:42:32.624Z,11.10
2023-04-29T07:47:37.340Z,13.13
2023-04-29T07:52:40.433Z,12.60
2023-04-29T07:57:43.472Z,12.47
2023-04-29T08:02:48.117Z,10.10
2023-04-29T08:07:53.041Z,9.20
2023-04-29T08:12:59.376Z,9.73
2023-04-29T08:18:03.976Z,11.77
2023-04-29T08:23:08.064Z,10.20
2023-04-29T08:28:11.233Z,11.43
2023-04-29T08:33:15.858Z,11.73
2023-04-29T08:38:21.514Z,9.77
2023-04-29T08:43:25.105Z,10.50
2023-04-29T08:48:31.615Z,9.07
2023-04-29T08:53:34.993Z,11.20
2023-04-29T08:58:42.417Z,8.17
2023-04-29T09:03:56.083Z,7.67
2023-04-29T09:09:01.011Z,7.33
2023-04-29T09:14:04.546Z,9.17
2023-04-29T09:19:09.069Z,7.57
2023-04-29T09:24:12.798Z,9.70
2023-04-29T09:29:16.359Z,7.33
2023-04-29T09:34:32.695Z,6.47
2023-04-29T09:39:41.009Z,6.33
2023-04-29T09:44:45.315Z,6.03
2023-04-29T09:49:50.087Z,7.33
2023-04-29T09:54:53.439Z,6.87
2023-04-29T09:59:56.765Z,7.57
2023-04-29T10:05:01.547Z,6.70
2023-04-29T10:10:08.520Z,6.33
2023-04-29T10:15:22.018Z,7.03
2023-04-29T10:20:27.264Z,6.77
2023-04-29T10:25:30.830Z,6.32
2023-04-29T10:30:34.941Z,7.38
2023-04-29T10:35:39.625Z,6.05
2023-04-29T10:40:47.270Z,7.80
2023-04-29T10:45:50.278Z,4.97
2023-04-29T10:51:06.955Z,7.20
2023-04-29T10:56:11.863Z,4.90
2023-04-29T11:01:16.265Z,4.95
2023-04-29T11:06:20.896Z,4.60
2023-04-29T11:11:28.195Z,4.15
2023-04-29T11:16:31.561Z,5.22
2023-04-29T11:21:37.345Z,4.90
2023-04-29T11:26:40.380Z,3.90
2023-04-29T11:31:43.452Z,4.18
2023-04-29T11:36:48.803Z,6.88
2023-04-29T11:41:52.854Z,5.95
2023-04-29T11:47:03.206Z,7.68
2023-04-29T11:52:09.068Z,5.88
2023-04-29T11:57:12.375Z,5.53
2023-04-29T12:02:15.678Z,5.70
2023-04-29T12:07:20.493Z,4.05
2023-04-29T12:12:23.753Z,6.38
2023-04-29T12:17:26.828Z,4.55
2023-04-29T12:22:34.576Z,5.88
2023-04-29T12:27:41.508Z,4.45
2023-04-29T12:32:46.116Z,5.80
2023-04-29T12:37:51.848Z,4.22
2023-04-29T12:42:55.394Z,3.40
2023-04-29T12:47:59.449Z,4.10
2023-04-29T12:53:05.101Z,4.25
2023-04-29T12:58:09.466Z,4.47
2023-04-29T13:03:13.084Z,4.72
2023-04-29T13:08:18.315Z,5.88
2023-04-29T13:13:21.741Z,3.65
2023-04-29T13:18:24.748Z,4.53
2023-04-29T13:23:29.115Z,3.60
2023-04-29T13:28:32.527Z,4.68
2023-04-29T13:33:38.243Z,5.88
2023-04-29T13:38:45.787Z,4.40
2023-04-29T13:43:51.064Z,5.15
2023-04-29T13:49:21.156Z,4.90
2023-04-29T14:04:33.494Z,4.25
2023-04-29T14:09:38.340Z,6.00
2023-04-29T14:14:41.433Z,4.63
2023-04-29T14:19:44.687Z,3.72
2023-04-29T14:24:49.425Z,3.83
2023-04-29T14:29:52.396Z,4.00
2023-04-29T14:34:58.587Z,4.00
2023-04-29T14:40:03.922Z,3.70
2023-04-29T14:45:08.965Z,5.25
2023-04-29T14:50:12.030Z,4.95
2023-04-29T14:55:16.891Z,6.75
2023-04-29T15:00:19.943Z,3.38
2023-04-29T15:05:23.022Z,4.45
2023-04-29T15:10:27.601Z,4.05
2023-04-29T15:15:31.284Z,4.38
2023-04-29T15:20:34.250Z,2.70
2023-04-29T15:25:38.732Z,4.18
2023-04-29T15:30:41.737Z,4.85
2023-04-29T15:35:44.741Z,3.13
2023-04-29T15:40:49.108Z,3.13
2023-04-29T15:45:52.178Z,5.03
2023-04-29T15:50:55.315Z,2.63
2023-04-29T15:56:00.142Z,2.17
2023-04-29T16:01:04.727Z,2.30
2023-04-29T16:06:08.304Z,2.50
2023-04-29T16:11:12.704Z,4.82
2023-04-29T16:16:15.868Z,2.60
2023-04-29T16:21:18.999Z,3.13
2023-04-29T16:26:23.808Z,2.92
2023-04-29T16:31:28.393Z,4.95
2023-04-29T16:36:32.928Z,3.13
2023-04-29T16:41:37.430Z,3.70
2023-04-29T16:46:40.580Z,5.03
2023-04-29T16:51:43.739Z,4.05
2023-04-29T16:56:50.205Z,3.35
2023-04-29T17:01:55.267Z,5.68
2023-04-29T17:06:58.451Z,3.33
2023-04-29T17:12:03.804Z,2.10
2023-04-29T17:17:06.889Z,4.68
2023-04-29T17:22:10.053Z,4.18
2023-04-29T17:27:14.766Z,1.15
2023-04-29T17:32:17.782Z,1.38
2023-04-29T17:37:25.031Z,1.98
2023-04-29T17:42:29.533Z,1.77
2023-04-29T17:47:32.776Z,1.73
2023-04-29T17:52:36.372Z,1.45
2023-04-29T17:57:42.236Z,1.23
2023-04-29T18:02:45.308Z,1.65
2023-04-29T18:07:48.633Z,1.10
2023-04-29T18:12:53.533Z,1.95
2023-04-29T18:17:56.552Z,1.90
2023-04-29T18:22:59.505Z,3.80
2023-04-29T18:28:23.021Z,2.40
2023-04-29T18:33:27.009Z,3.63
2023-04-29T18:38:30.161Z,2.37
2023-04-29T18:43:34.609Z,2.73
2023-04-29T18:48:39.021Z,2.67
2023-04-29T18:53:42.111Z,4.10
2023-04-29T18:58:46.645Z,3.53
2023-04-29T19:03:49.733Z,3.10
2023-04-29T19:08:52.984Z,2.83
2023-04-29T19:13:57.378Z,2.77
2023-04-29T19:19:00.441Z,3.13
2023-04-29T19:24:03.325Z,3.03
2023-04-29T19:29:07.742Z,4.80
2023-04-29T19:34:10.772Z,3.67
2023-04-29T19:39:14.797Z,4.07
2023-04-29T19:44:19.264Z,2.60
2023-04-29T19:49:22.277Z,4.17
2023-04-29T19:54:25.208Z,3.73
2023-04-29T19:59:29.644Z,3.90
2023-04-29T20:04:32.630Z,3.47
2023-04-29T20:09:36.090Z,4.67
2023-04-29T20:14:40.484Z,3.97
2023-04-29T20:19:43.426Z,5.07
2023-04-29T20:24:46.694Z,4.37
2023-04-29T20:29:53.671Z,3.13
2023-04-29T20:34:56.922Z,2.60
2023-04-29T20:40:00.229Z,4.07
2023-04-29T20:45:05.736Z,4.20
2023-04-29T20:50:09.893Z,4.07
2023-04-29T20:55:13.013Z,3.40
2023-04-29T21:00:17.876Z,6.30
2023-04-29T21:05:21.021Z,3.93
2023-04-29T21:10:24.565Z,4.87
2023-04-29T21:15:30.485Z,6.37
2023-04-29T21:20:33.613Z,4.43
2023-04-29T21:25:36.696Z,5.93
2023-04-29T21:30:41.317Z,6.40
2023-04-29T21:35:48.339Z,7.03
2023-04-29T21:40:54.400Z,7.50
2023-04-29T21:45:58.988Z,9.23
2023-04-29T21:51:05.097Z,6.80
2023-04-29T21:56:08.872Z,4.47
2023-04-29T22:01:26.708Z,9.03
2023-04-29T22:06:30.126Z,7.40
2023-04-29T22:11:33.294Z,9.33
2023-04-29T22:16:38.271Z,7.07
2023-04-29T22:21:43.029Z,7.10
2023-04-29T22:26:46.515Z,8.23
2023-04-29T22:31:53.521Z,7.30
2023-04-29T22:36:57.757Z,9.50
2023-04-29T22:42:01.130Z,6.80
2023-04-29T22:47:05.685Z,7.63
2023-04-29T22:52:08.720Z,7.27
2023-04-29T22:57:12.372Z,9.17
2023-04-29T23:02:16.958Z,10.10
2023-04-29T23:07:20.019Z,9.23
2023-04-29T23:12:23.086Z,8.20
2023-04-29T23:17:27.713Z,8.43
2023-04-29T23:22:30.766Z,8.07
2023-04-29T23:27:33.745Z,9.20
2023-04-29T23:32:38.146Z,11.07
2023-04-29T23:37:41.191Z,8.97
2023-04-29T23:42:44.124Z,10.93
2023-04-29T23:47:49.649Z,11.80
2023-04-29T23:52:52.690Z,10.40
2023-04-29T23:57:57.115Z,10.20
